createdAt,value
2019-05-10T00:04:51.987Z,99.9
2019-05-10T00:14:55.437Z,99.9
2019-05-10T00:25:05.357Z,99.9
2019-05-10T00:35:08.888Z,99.9
2019-05-10T00:45:12.355Z,99.9
2019-05-10T00:55:19.641Z,99.9
2019-05-10T01:05:23.226Z,99.9
2019-05-10T01:15:26.662Z,99.9
2019-05-10T01:25:35.944Z,99.9
2019-05-10T01:35:39.494Z,99.9
2019-05-10T01:45:42.941Z,99.9
2019-05-10T01:55:53.082Z,99.9
2019-05-10T02:05:56.613Z,99.9
2019-05-10T02:16:00.029Z,99.9
2019-05-10T02:26:10.126Z,99.9
2019-05-10T02:36:13.730Z,99.9
2019-05-10T02:46:17.235Z,99.9
2019-05-10T02:56:31.685Z,99.9
2019-05-10T03:06:35.313Z,99.9
2019-05-10T03:16:38.811Z,99.9
2019-05-10T03:26:51.649Z,99.9
2019-05-10T03:36:55.346Z,99.9
2019-05-10T03:46:58.795Z,99.9
2019-05-10T03:57:14.746Z,99.9
2019-05-10T04:07:18.726Z,99.9
2019-05-10T04:17:22.170Z,99.9
2019-05-10T04:27:33.352Z,99.9
2019-05-10T04:37:36.986Z,99.9
2019-05-10T04:47:40.536Z,99.9
2019-05-10T04:57:51.411Z,99.9
2019-05-10T05:07:54.968Z,99.9
2019-05-10T05:17:58.437Z,99.9
2019-05-10T05:28:08.667Z,99.9
2019-05-10T05:38:12.218Z,99.9
2019-05-10T05:48:21.168Z,99.9
2019-05-10T05:58:47.016Z,99.9
2019-05-10T06:08:59.533Z,99.9
2019-05-10T06:19:05.111Z,99.9
2019-05-10T06:29:17.917Z,99.9
2019-05-10T06:39:23.392Z,99.9
2019-05-10T06:49:26.840Z,99.9
2019-05-10T06:59:30.286Z,99.9
2019-05-10T07:10:08.610Z,99.9
2019-05-10T07:20:30.945Z,99.9
2019-05-10T07:30:35.493Z,99.9
2019-05-10T07:40:38.981Z,99.9
2019-05-10T07:50:51.875Z,99.9
2019-05-10T08:00:56.533Z,99.9
2019-05-10T08:10:59.980Z,99.9
2019-05-10T08:21:25.567Z,99.9
2019-05-10T08:31:40.774Z,99.9
2019-05-10T08:42:29.123Z,99.9
2019-05-10T08:53:10.678Z,99.9
2019-05-10T09:03:22.480Z,99.9
2019-05-10T09:13:34.566Z,99.9
2019-05-10T09:24:01.924Z,99.9
2019-05-10T09:34:12.391Z,99.9
2019-05-10T09:44:15.850Z,99.9
2019-05-10T09:54:29.228Z,99.9
2019-05-10T10:04:37.437Z,99.9
2019-05-10T10:14:43.506Z,99.9
2019-05-10T10:24:54.650Z,99.9
2019-05-10T10:35:04.034Z,99.9
2019-05-10T10:45:07.607Z,99.9
2019-05-10T10:55:13.619Z,99.9
2019-05-10T11:05:17.091Z,99.9
2019-05-10T11:15:28.301Z,99.9
2019-05-10T11:25:54.885Z,99.9
2019-05-10T11:36:08.727Z,99.9
2019-05-10T11:46:14.932Z,99.9
2019-05-10T11:56:27.856Z,99.9
2019-05-10T12:06:32.264Z,99.9
2019-05-10T12:16:35.699Z,99.9
2019-05-10T12:27:24.686Z,99.9
2019-05-10T12:37:54.538Z,99.9
2019-05-10T12:47:57.995Z,98.8
2019-05-10T12:58:01.407Z,94.7
2019-05-10T13:08:04.871Z,95.6
2019-05-10T13:18:08.330Z,94.3
2019-05-10T13:28:12.099Z,99
2019-05-10T13:38:15.556Z,94
2019-05-10T13:48:19.026Z,94.5
2019-05-10T13:58:22.511Z,91.2
2019-05-10T14:08:25.950Z,95.6
2019-05-10T14:18:29.394Z,93.3
2019-05-10T14:28:32.881Z,87
2019-05-10T14:38:36.308Z,89.8
2019-05-10T14:48:39.763Z,84.8
2019-05-10T14:58:43.206Z,97.3
2019-05-10T15:08:46.711Z,98.6
2019-05-10T15:18:50.164Z,95.9
2019-05-10T15:28:53.617Z,93.4
2019-05-10T15:38:57.051Z,94.7
2019-05-10T15:49:00.558Z,92.3
2019-05-10T15:59:04.016Z,96.1
2019-05-10T16:09:19.060Z,92.6
2019-05-10T16:19:22.876Z,96
2019-05-10T16:29:26.306Z,96
2019-05-10T16:39:29.748Z,97
2019-05-10T16:49:33.220Z,95.1
2019-05-10T16:59:36.675Z,96
2019-05-10T17:09:40.108Z,99.6
2019-05-10T17:19:43.517Z,99.4
2019-05-10T17:29:51.296Z,99.9
2019-05-10T17:39:54.774Z,99.9
2019-05-10T17:49:58.234Z,99.9
2019-05-10T18:00:01.677Z,99.9
2019-05-10T18:10:05.118Z,99.9
2019-05-10T18:20:08.566Z,99.9
2019-05-10T18:30:12.028Z,99.9
2019-05-10T18:40:15.461Z,99.9
2019-05-10T18:50:18.925Z,99.9
2019-05-10T19:00:25.242Z,99.9
2019-05-10T19:10:28.895Z,99.9
2019-05-10T19:20:32.354Z,99.9
2019-05-10T19:30:35.773Z,99.9
2019-05-10T19:40:39.230Z,99.9
2019-05-10T19:50:42.688Z,99.9
2019-05-10T20:00:46.141Z,99.9
2019-05-10T20:10:49.630Z,99.9
2019-05-10T20:20:53.108Z,99.9
2019-05-10T20:30:56.557Z,99.9
2019-05-10T20:41:00.023Z,99.9
2019-05-10T20:51:03.482Z,99.9
2019-05-10T21:01:06.924Z,99.9
2019-05-10T21:11:10.376Z,99.9
2019-05-10T21:21:13.831Z,99.9
2019-05-10T21:31:17.329Z,99.9
2019-05-10T21:41:20.808Z,99.9
2019-05-10T21:51:24.265Z,99.9
2019-05-10T22:01:27.716Z,99.9
2019-05-10T22:11:31.173Z,99.9
2019-05-10T22:21:34.632Z,99.9
2019-05-10T22:31:38.191Z,99.9
2019-05-10T22:41:41.623Z,99.9
2019-05-10T22:51:45.145Z,99.9
2019-05-10T23:01:48.556Z,99.9
2019-05-10T23:11:51.995Z,99.9
2019-05-10T23:21:55.477Z,99.9
2019-05-10T23:31:58.935Z,99.9
2019-05-10T23:42:02.417Z,99.9
2019-05-10T23:52:06.143Z,99.9
